createdAt,value
2024-01-29T00:00:31.823Z,100943.61
2024-01-29T00:02:59.441Z,100948.73
2024-01-29T00:05:27.052Z,100948.09
2024-01-29T00:07:54.564Z,100950.17
2024-01-29T00:10:23.506Z,100948.99
2024-01-29T00:12:51.164Z,100949.89
2024-01-29T00:15:19.259Z,100951.27
2024-01-29T00:17:46.855Z,100951.31
2024-01-29T00:20:14.686Z,100950.62
2024-01-29T00:22:42.093Z,100950.27
2024-01-29T00:25:09.703Z,100950.93
2024-01-29T00:27:37.468Z,100950.97
2024-01-29T00:30:07.343Z,100955.10
2024-01-29T00:32:34.999Z,100959.00
2024-01-29T00:35:02.527Z,100961.73
2024-01-29T00:37:30.822Z,100964.27
2024-01-29T00:39:58.270Z,100961.00
2024-01-29T00:42:25.823Z,100963.23
2024-01-29T00:44:53.301Z,100970.48
2024-01-29T00:47:21.860Z,100973.28
2024-01-29T00:49:49.388Z,100975.21
2024-01-29T00:52:16.883Z,100972.14
2024-01-29T00:54:44.352Z,100968.45
2024-01-29T00:57:13.245Z,100968.98
2024-01-29T00:59:40.609Z,100975.48
2024-01-29T01:02:07.965Z,100975.19
2024-01-29T01:04:35.518Z,100977.95
2024-01-29T01:07:03.104Z,100979.58
2024-01-29T01:09:30.686Z,100976.41
2024-01-29T01:11:58.102Z,100978.14
2024-01-29T01:14:25.458Z,100977.42
2024-01-29T01:16:52.982Z,100979.43
2024-01-29T01:19:20.513Z,100978.20
2024-01-29T01:21:49.001Z,100976.69
2024-01-29T01:24:16.387Z,100977.05
2024-01-29T01:26:43.917Z,100976.21
2024-01-29T01:29:11.390Z,100983.26
2024-01-29T01:31:38.877Z,100984.21
2024-01-29T01:34:06.389Z,100974.31
2024-01-29T01:36:33.959Z,100974.89
2024-01-29T01:39:01.444Z,100971.86
2024-01-29T01:43:23.336Z,100982.77
2024-01-29T01:46:07.955Z,100980.05
2024-01-29T01:48:35.855Z,100972.88
2024-01-29T01:51:04.334Z,100971.14
2024-01-29T01:53:36.521Z,100969.10
2024-01-29T01:56:04.183Z,100971.13
2024-01-29T01:58:33.608Z,100970.45
2024-01-29T02:01:01.097Z,100974.86
2024-01-29T02:03:28.688Z,100980.44
2024-01-29T02:05:56.439Z,100984.33
2024-01-29T02:08:24.980Z,100986.13
2024-01-29T02:10:52.508Z,100985.20
2024-01-29T02:13:19.910Z,100986.20
2024-01-29T02:15:47.271Z,100987.63
2024-01-29T02:18:14.751Z,100987.16
2024-01-29T02:20:42.716Z,100985.31
2024-01-29T02:23:10.123Z,100987.91
2024-01-29T02:25:37.764Z,100989.86
2024-01-29T02:28:05.543Z,100988.32
2024-01-29T02:30:33.048Z,100987.04
2024-01-29T02:33:00.793Z,100985.95
2024-01-29T02:35:28.537Z,100983.85
2024-01-29T02:37:55.996Z,100982.09
2024-01-29T02:40:23.780Z,100981.15
2024-01-29T02:42:51.222Z,100983.40
2024-01-29T02:45:18.696Z,100988.52
2024-01-29T02:47:46.146Z,100988.60
2024-01-29T02:50:13.664Z,100987.70
2024-01-29T02:52:41.045Z,100994.27
2024-01-29T02:55:08.570Z,101001.77
2024-01-29T02:57:36.162Z,100998.83
2024-01-29T03:00:05.916Z,100987.86
2024-01-29T03:02:33.366Z,100989.48
2024-01-29T03:05:00.873Z,100995.04
2024-01-29T03:07:28.393Z,100993.42
2024-01-29T03:09:55.900Z,100994.79
2024-01-29T03:12:23.325Z,100995.30
2024-01-29T03:14:50.769Z,100998.27
2024-01-29T03:17:18.195Z,101000.67
2024-01-29T03:19:45.697Z,101001.41
2024-01-29T03:22:13.282Z,100992.31
2024-01-29T03:24:40.789Z,100995.09
2024-01-29T03:27:08.196Z,100999.94
2024-01-29T03:29:36.023Z,101002.17
2024-01-29T03:32:03.597Z,101007.89
2024-01-29T03:34:31.032Z,101012.05
2024-01-29T03:36:58.454Z,101013.13
2024-01-29T03:39:25.876Z,101007.58
2024-01-29T03:41:53.563Z,101004.27
2024-01-29T03:44:20.909Z,100998.70
2024-01-29T03:46:48.353Z,100992.95
2024-01-29T03:49:15.781Z,100996.31
2024-01-29T03:51:43.258Z,100991.15
2024-01-29T03:54:11.029Z,100988.80
2024-01-29T03:56:38.506Z,100995.50
2024-01-29T03:59:05.935Z,100995.52
2024-01-29T04:01:33.363Z,100996.72
2024-01-29T04:04:01.319Z,100995.36
2024-01-29T04:06:28.948Z,101000.55
2024-01-29T04:08:56.584Z,100999.89
2024-01-29T04:11:24.432Z,101001.94
2024-01-29T04:13:51.842Z,101003.88
2024-01-29T04:16:19.262Z,101004.42
2024-01-29T04:18:46.836Z,101004.46
2024-01-29T04:21:15.460Z,101005.39
2024-01-29T04:23:42.815Z,101002.98
2024-01-29T04:26:10.187Z,100999.58
2024-01-29T04:28:37.557Z,100999.92
2024-01-29T04:31:08.863Z,100999.94
2024-01-29T04:33:39.421Z,101000.46
2024-01-29T04:36:07.503Z,101004.92
2024-01-29T04:38:34.841Z,101004.17
2024-01-29T04:41:02.230Z,100999.45
2024-01-29T04:43:29.617Z,100998.91
2024-01-29T04:45:57.128Z,101003.90
2024-01-29T04:48:26.754Z,101001.97
2024-01-29T04:50:58.761Z,101001.03
2024-01-29T04:53:26.468Z,100997.39
2024-01-29T04:55:54.921Z,100997.02
2024-01-29T04:58:22.881Z,101001.02
2024-01-29T05:00:50.376Z,100999.02
2024-01-29T05:03:17.863Z,100997.27
2024-01-29T05:05:45.507Z,100997.55
2024-01-29T05:08:14.425Z,100992.39
2024-01-29T05:10:42.641Z,100994.43
2024-01-29T05:13:10.085Z,101003.38
2024-01-29T05:15:37.559Z,100997.83
2024-01-29T05:18:06.027Z,100998.70
2024-01-29T05:20:33.470Z,101001.45
2024-01-29T05:23:00.932Z,100996.24
2024-01-29T05:25:28.314Z,100993.08
2024-01-29T05:27:55.892Z,100991.45
2024-01-29T05:30:24.513Z,100993.17
2024-01-29T05:32:52.096Z,100995.72
2024-01-29T05:35:19.801Z,100997.48
2024-01-29T05:37:47.167Z,100993.28
2024-01-29T05:40:14.644Z,100990.58
2024-01-29T05:42:42.335Z,100992.73
2024-01-29T05:45:10.044Z,100994.11
2024-01-29T05:47:38.461Z,100992.04
2024-01-29T05:50:07.610Z,100992.48
2024-01-29T05:52:34.989Z,100994.05
2024-01-29T05:55:02.520Z,101000.27
2024-01-29T05:57:30.077Z,101001.20
2024-01-29T05:59:57.617Z,101003.37
2024-01-29T06:02:25.254Z,101001.92
2024-01-29T06:04:53.012Z,100999.87
2024-01-29T06:07:20.593Z,100999.70
2024-01-29T06:09:48.074Z,101000.91
2024-01-29T06:12:15.458Z,101001.08
2024-01-29T06:14:43.099Z,101001.86
2024-01-29T06:17:10.956Z,101007.39
2024-01-29T06:19:53.484Z,101005.30
2024-01-29T06:22:25.896Z,101006.81
2024-01-29T06:24:53.299Z,101011.75
2024-01-29T06:27:20.788Z,101012.45
2024-01-29T06:29:48.189Z,101015.38
2024-01-29T06:32:15.587Z,101021.86
2024-01-29T06:34:43.317Z,101017.83
2024-01-29T06:37:10.871Z,101020.70
2024-01-29T06:39:38.492Z,101015.06
2024-01-29T06:42:06.120Z,101019.49
2024-01-29T06:44:33.561Z,101020.76
2024-01-29T06:47:00.946Z,101020.80
2024-01-29T06:49:29.640Z,101024.85
2024-01-29T06:51:57.216Z,101025.46
2024-01-29T06:54:26.267Z,101023.95
2024-01-29T06:56:54.209Z,101025.88
2024-01-29T06:59:21.628Z,101030.61
2024-01-29T07:01:49.204Z,101027.34
2024-01-29T07:04:16.841Z,101031.30
2024-01-29T07:06:45.540Z,101037.20
2024-01-29T07:09:13.092Z,101043.16
2024-01-29T07:11:40.539Z,101047.34
2024-01-29T07:14:07.960Z,101046.55
2024-01-29T07:16:35.376Z,101053.50
2024-01-29T07:19:03.759Z,101050.48
2024-01-29T07:21:31.523Z,101054.57
2024-01-29T07:23:58.913Z,101060.16
2024-01-29T07:26:26.486Z,101062.65
2024-01-29T07:28:53.821Z,101063.38
2024-01-29T07:31:21.470Z,101065.83
2024-01-29T07:33:48.960Z,101065.64
2024-01-29T07:36:16.546Z,101065.30
2024-01-29T07:38:44.084Z,101063.06
2024-01-29T07:41:11.435Z,101066.63
2024-01-29T07:43:38.770Z,101063.94
2024-01-29T07:46:06.847Z,101054.95
2024-01-29T07:48:34.475Z,101054.00
2024-01-29T07:51:02.001Z,101056.56
2024-01-29T07:53:29.442Z,101056.27
2024-01-29T07:55:57.140Z,101054.83
2024-01-29T07:58:25.447Z,101054.64
2024-01-29T08:00:53.227Z,101055.59
2024-01-29T08:03:20.812Z,101054.57
2024-01-29T08:05:48.269Z,101053.84
2024-01-29T08:08:15.865Z,101056.19
2024-01-29T08:10:43.253Z,101061.34
2024-01-29T08:13:10.628Z,101064.10
2024-01-29T08:15:38.391Z,101064.13
2024-01-29T08:18:06.921Z,101061.89
2024-01-29T08:20:34.598Z,101059.75
2024-01-29T08:23:02.187Z,101061.10
2024-01-29T08:25:29.580Z,101058.96
2024-01-29T08:27:57.550Z,101056.96
2024-01-29T08:30:25.123Z,101060.14
2024-01-29T08:32:52.608Z,101058.28
2024-01-29T08:35:20.074Z,101059.30
2024-01-29T08:37:47.781Z,101059.49
2024-01-29T08:40:15.808Z,101055.73
2024-01-29T08:42:43.461Z,101061.02
2024-01-29T08:45:16.176Z,101067.75
2024-01-29T08:47:44.693Z,101071.15
2024-01-29T08:50:12.231Z,101071.63
2024-01-29T08:52:40.840Z,101076.16
2024-01-29T08:55:09.659Z,101080.27
2024-01-29T08:57:37.152Z,101082.98
2024-01-29T09:00:05.928Z,101086.04
2024-01-29T09:02:34.761Z,101091.23
2024-01-29T09:05:02.526Z,101093.25
2024-01-29T09:07:30.123Z,101094.84
2024-01-29T09:12:45.305Z,101101.07
2024-01-29T09:15:13.070Z,101106.08
2024-01-29T09:17:43.564Z,101104.33
2024-01-29T09:20:13.475Z,101103.39
2024-01-29T09:22:41.139Z,101108.92
2024-01-29T09:25:09.522Z,101111.52
2024-01-29T09:27:37.388Z,101108.62
2024-01-29T09:30:08.837Z,101111.61
2024-01-29T09:32:36.257Z,101113.39
2024-01-29T09:35:05.658Z,101111.16
2024-01-29T09:37:33.186Z,101111.44
2024-01-29T09:40:00.655Z,101109.29
2024-01-29T09:42:32.160Z,101107.70
2024-01-29T09:45:00.827Z,101103.75
2024-01-29T09:47:28.334Z,101104.14
2024-01-29T09:49:56.537Z,101098.17
2024-01-29T09:52:24.501Z,101097.38
2024-01-29T09:54:52.062Z,101095.83
2024-01-29T09:57:19.648Z,101096.56
2024-01-29T09:59:47.405Z,101099.17
2024-01-29T10:02:14.872Z,101100.52
2024-01-29T10:04:42.936Z,101094.36
2024-01-29T10:07:12.222Z,101095.55
2024-01-29T10:09:40.021Z,101096.66
2024-01-29T10:12:07.995Z,101095.64
2024-01-29T10:14:36.051Z,101090.44
2024-01-29T10:17:03.530Z,101090.53
2024-01-29T10:19:38.850Z,101095.30
2024-01-29T10:22:14.025Z,101093.06
2024-01-29T10:24:42.139Z,101088.80
2024-01-29T10:27:10.123Z,101085.02
2024-01-29T10:29:48.550Z,101083.96
2024-01-29T10:32:15.906Z,101083.14
2024-01-29T10:34:43.490Z,101082.67
2024-01-29T10:37:11.018Z,101081.94
2024-01-29T10:39:46.572Z,101081.02
2024-01-29T10:42:18.461Z,101071.31
2024-01-29T10:44:45.830Z,101073.73
2024-01-29T10:47:29.279Z,101074.67
2024-01-29T10:50:00.302Z,101073.79
2024-01-29T10:52:28.106Z,101066.98
2024-01-29T10:54:56.973Z,101069.63
2024-01-29T10:57:24.516Z,101065.86
2024-01-29T10:59:51.916Z,101062.98
2024-01-29T11:02:19.492Z,101060.23
2024-01-29T11:04:47.160Z,101059.95
2024-01-29T11:07:22.570Z,101057.52
2024-01-29T11:10:15.543Z,101056.36
2024-01-29T11:12:43.039Z,101058.56
2024-01-29T11:15:10.670Z,101059.40
2024-01-29T11:17:40.573Z,101061.35
2024-01-29T11:20:15.547Z,101066.66
2024-01-29T11:22:51.920Z,101064.54
2024-01-29T11:25:20.239Z,101066.27
2024-01-29T11:27:49.000Z,101064.44
2024-01-29T11:30:21.869Z,101063.77
2024-01-29T11:32:50.449Z,101058.95
2024-01-29T11:35:28.126Z,101060.77
2024-01-29T11:38:26.904Z,101061.50
2024-01-29T11:40:54.602Z,101055.61
2024-01-29T11:43:22.309Z,101054.66
2024-01-29T11:45:51.624Z,101051.56
2024-01-29T11:48:21.038Z,101047.98
2024-01-29T11:50:49.794Z,101046.08
2024-01-29T11:53:18.647Z,101046.77
2024-01-29T11:55:48.566Z,101044.89
2024-01-29T11:58:20.596Z,101048.02
2024-01-29T12:00:49.679Z,101044.50
2024-01-29T12:03:23.429Z,101045.13
2024-01-29T12:05:53.168Z,101045.29
2024-01-29T12:08:21.883Z,101041.40
2024-01-29T12:10:49.613Z,101041.52
2024-01-29T12:13:20.499Z,101035.24
2024-01-29T12:15:50.711Z,101032.75
2024-01-29T12:18:20.782Z,101032.06
2024-01-29T12:20:49.278Z,101030.65
2024-01-29T12:23:18.272Z,101030.44
2024-01-29T12:25:47.116Z,101027.89
2024-01-29T12:28:17.804Z,101029.00
2024-01-29T12:30:54.052Z,101026.95
2024-01-29T12:33:28.984Z,101023.18
2024-01-29T12:35:57.767Z,101019.99
2024-01-29T12:38:25.651Z,101016.77
2024-01-29T12:40:59.252Z,101020.31
2024-01-29T12:43:28.531Z,101021.31
2024-01-29T12:46:15.061Z,101020.40
2024-01-29T12:48:43.940Z,101022.09
2024-01-29T12:51:13.014Z,101021.48
2024-01-29T12:53:44.409Z,101021.99
2024-01-29T12:56:12.768Z,101016.65
2024-01-29T12:58:40.129Z,101013.21
2024-01-29T13:01:07.671Z,101012.72
2024-01-29T13:03:35.482Z,101009.58
2024-01-29T13:06:04.277Z,101012.61
2024-01-29T13:08:32.999Z,101008.55
2024-01-29T13:11:01.407Z,101011.10
2024-01-29T13:13:28.856Z,101016.45
2024-01-29T13:15:56.868Z,101015.70
2024-01-29T13:18:26.912Z,101012.67
2024-01-29T13:20:54.628Z,101012.88
2024-01-29T13:23:23.501Z,101010.89
2024-01-29T13:25:51.591Z,101008.84
2024-01-29T13:28:19.128Z,101008.23
2024-01-29T13:30:46.852Z,100999.38
2024-01-29T13:33:14.716Z,101000.31
2024-01-29T13:35:42.400Z,100998.50
2024-01-29T13:38:09.823Z,100992.60
2024-01-29T13:40:37.267Z,100995.85
2024-01-29T13:43:04.923Z,100991.83
2024-01-29T13:45:33.636Z,100992.15
2024-01-29T13:48:01.217Z,100987.61
2024-01-29T13:50:28.818Z,100990.13
2024-01-29T13:52:56.809Z,100989.59
2024-01-29T13:55:25.485Z,100984.06
2024-01-29T13:57:53.086Z,100981.02
2024-01-29T14:02:03.219Z,100977.70
2024-01-29T14:04:30.846Z,100977.23
2024-01-29T14:07:02.504Z,100982.55
2024-01-29T14:09:30.155Z,100984.98
2024-01-29T14:11:57.695Z,100984.17
2024-01-29T14:14:34.009Z,100992.82
2024-01-29T14:17:05.837Z,100998.33
2024-01-29T14:19:33.335Z,100996.97
2024-01-29T14:22:00.903Z,100998.54
2024-01-29T14:24:28.872Z,100999.45
2024-01-29T14:26:56.565Z,101000.70
2024-01-29T14:29:25.365Z,101003.84
2024-01-29T14:31:57.062Z,101006.43
2024-01-29T14:34:25.590Z,101008.01
2024-01-29T14:36:53.412Z,101013.64
2024-01-29T14:39:21.029Z,101018.61
2024-01-29T14:41:49.478Z,101022.52
2024-01-29T14:44:16.961Z,101016.28
2024-01-29T14:46:44.537Z,101019.19
2024-01-29T14:49:12.187Z,101019.77
2024-01-29T14:51:39.766Z,101021.92
2024-01-29T14:54:07.318Z,101017.00
2024-01-29T14:56:34.958Z,101018.31
2024-01-29T14:59:03.357Z,101014.58
2024-01-29T15:01:31.296Z,101016.52
2024-01-29T15:03:59.068Z,101014.80
2024-01-29T15:06:27.187Z,101023.38
2024-01-29T15:08:55.158Z,101030.05
2024-01-29T15:11:22.804Z,101027.65
2024-01-29T15:13:52.012Z,101031.33
2024-01-29T15:16:19.620Z,101034.07
2024-01-29T15:18:47.285Z,101033.58
2024-01-29T15:21:14.975Z,101038.33
2024-01-29T15:23:42.423Z,101042.91
2024-01-29T15:26:09.907Z,101039.23
2024-01-29T15:28:37.477Z,101040.09
2024-01-29T15:31:05.029Z,101038.47
2024-01-29T15:33:34.086Z,101044.10
2024-01-29T15:36:04.431Z,101044.97
2024-01-29T15:38:32.639Z,101049.95
2024-01-29T15:41:00.266Z,101057.21
2024-01-29T15:43:30.121Z,101058.06
2024-01-29T15:45:57.819Z,101061.64
2024-01-29T15:48:26.394Z,101061.66
2024-01-29T15:50:54.327Z,101055.79
2024-01-29T15:53:21.674Z,101059.71
2024-01-29T15:55:49.033Z,101063.11
2024-01-29T15:58:16.611Z,101061.74
2024-01-29T16:00:44.095Z,101062.69
2024-01-29T16:03:11.696Z,101062.59
2024-01-29T16:05:39.270Z,101067.16
2024-01-29T16:08:12.324Z,101062.17
2024-01-29T16:10:39.764Z,101061.12
2024-01-29T16:13:07.260Z,101059.02
2024-01-29T16:15:34.940Z,101059.61
2024-01-29T16:18:03.823Z,101061.88
2024-01-29T16:20:31.464Z,101066.87
2024-01-29T16:22:59.133Z,101069.38
2024-01-29T16:25:26.704Z,101072.80
2024-01-29T16:27:54.219Z,101070.42
2024-01-29T16:30:21.677Z,101069.10
2024-01-29T16:32:49.357Z,101073.06
2024-01-29T16:35:18.118Z,101072.06
2024-01-29T16:37:45.647Z,101072.60
2024-01-29T16:40:14.417Z,101072.85
2024-01-29T16:42:42.145Z,101070.82
2024-01-29T16:45:10.025Z,101075.99
2024-01-29T16:47:41.865Z,101072.96
2024-01-29T16:50:10.566Z,101077.72
2024-01-29T16:52:38.599Z,101080.17
2024-01-29T16:55:06.224Z,101082.35
2024-01-29T16:57:34.108Z,101082.05
2024-01-29T17:00:01.947Z,101082.61
2024-01-29T17:02:29.509Z,101077.09
2024-01-29T17:04:57.096Z,101075.94
2024-01-29T17:07:30.995Z,101077.04
2024-01-29T17:09:58.603Z,101082.19
2024-01-29T17:12:26.047Z,101080.70
2024-01-29T17:14:53.538Z,101079.17
2024-01-29T17:17:20.995Z,101082.70
2024-01-29T17:19:48.628Z,101083.36
2024-01-29T17:22:16.389Z,101083.23
2024-01-29T17:24:46.029Z,101083.46
2024-01-29T17:27:13.645Z,101085.72
2024-01-29T17:29:41.239Z,101090.20
2024-01-29T17:32:09.580Z,101086.66
2024-01-29T17:34:40.456Z,101084.68
2024-01-29T17:37:08.001Z,101078.16
2024-01-29T17:39:35.720Z,101076.78
2024-01-29T17:42:05.225Z,101075.77
2024-01-29T17:44:32.615Z,101072.75
2024-01-29T17:47:00.309Z,101074.96
2024-01-29T17:49:27.912Z,101076.02
2024-01-29T17:51:55.512Z,101077.58
2024-01-29T17:54:23.037Z,101078.10
2024-01-29T17:56:50.925Z,101077.75
2024-01-29T17:59:18.376Z,101073.90
2024-01-29T18:01:45.992Z,101076.19
2024-01-29T18:04:13.590Z,101077.31
2024-01-29T18:06:48.570Z,101077.21
2024-01-29T18:09:17.616Z,101075.16
2024-01-29T18:11:47.150Z,101068.89
2024-01-29T18:14:15.931Z,101069.59
2024-01-29T18:16:45.851Z,101063.29
2024-01-29T18:19:13.405Z,101064.71
2024-01-29T18:21:41.258Z,101073.15
2024-01-29T18:24:16.231Z,101072.01
2024-01-29T18:26:47.805Z,101074.81
2024-01-29T18:29:15.639Z,101079.23
2024-01-29T18:31:43.035Z,101086.33
2024-01-29T18:34:10.569Z,101085.95
2024-01-29T18:36:38.260Z,101087.47
2024-01-29T18:39:05.734Z,101086.81
2024-01-29T18:41:33.313Z,101092.19
2024-01-29T18:44:00.791Z,101094.34
2024-01-29T18:46:28.276Z,101095.00
2024-01-29T18:48:55.912Z,101091.96
2024-01-29T18:51:26.327Z,101093.67
2024-01-29T18:53:54.880Z,101083.33
2024-01-29T18:56:23.216Z,101086.15
2024-01-29T18:58:51.335Z,101095.63
2024-01-29T19:01:21.314Z,101103.48
2024-01-29T19:03:49.156Z,101110.52
2024-01-29T19:06:16.996Z,101113.86
2024-01-29T19:08:44.449Z,101118.18
2024-01-29T19:11:11.922Z,101117.31
2024-01-29T19:13:39.491Z,101115.14
2024-01-29T19:16:07.261Z,101111.39
2024-01-29T19:18:35.346Z,101113.93
2024-01-29T19:21:02.948Z,101114.23
2024-01-29T19:23:30.896Z,101106.52
2024-01-29T19:25:58.350Z,101101.67
2024-01-29T19:28:28.116Z,101105.29
2024-01-29T19:30:55.809Z,101103.81
2024-01-29T19:33:23.709Z,101097.17
2024-01-29T19:35:53.920Z,101098.35
2024-01-29T19:38:23.747Z,101097.23
2024-01-29T19:40:51.465Z,101097.52
2024-01-29T19:43:19.158Z,101096.21
2024-01-29T19:45:47.299Z,101100.87
2024-01-29T19:48:14.862Z,101100.05
2024-01-29T19:50:42.521Z,101106.89
2024-01-29T19:53:09.980Z,101101.64
2024-01-29T19:55:37.650Z,101091.46
2024-01-29T19:58:05.107Z,101089.83
2024-01-29T20:00:32.601Z,101083.55
2024-01-29T20:03:00.810Z,101083.81
2024-01-29T20:05:28.664Z,101080.27
2024-01-29T20:07:56.227Z,101081.35
2024-01-29T20:10:24.043Z,101081.84
2024-01-29T20:12:51.986Z,101087.75
2024-01-29T20:15:19.963Z,101086.11
2024-01-29T20:17:47.463Z,101083.62
2024-01-29T20:20:15.202Z,101081.88
2024-01-29T20:22:42.991Z,101082.73
2024-01-29T20:25:10.828Z,101082.05
2024-01-29T20:27:40.418Z,101081.20
2024-01-29T20:30:09.840Z,101084.83
2024-01-29T20:32:42.081Z,101081.84
2024-01-29T20:35:12.481Z,101087.13
2024-01-29T20:37:40.452Z,101084.38
2024-01-29T20:40:08.878Z,101085.70
2024-01-29T20:42:36.796Z,101076.89
2024-01-29T20:45:05.297Z,101075.73
2024-01-29T20:47:32.742Z,101073.16
2024-01-29T20:50:00.645Z,101076.00
2024-01-29T20:52:28.656Z,101077.09
2024-01-29T20:55:03.804Z,101081.00
2024-01-29T20:57:39.051Z,101073.31
2024-01-29T21:00:07.536Z,101076.49
2024-01-29T21:02:35.036Z,101085.88
2024-01-29T21:05:02.902Z,101085.41
2024-01-29T21:07:30.664Z,101086.61
2024-01-29T21:09:58.221Z,101091.54
2024-01-29T21:12:26.343Z,101093.66
2024-01-29T21:14:53.826Z,101092.05
2024-01-29T21:17:21.373Z,101086.20
2024-01-29T21:19:48.862Z,101082.23
2024-01-29T21:22:16.442Z,101088.77
2024-01-29T21:24:43.960Z,101085.52
2024-01-29T21:27:11.505Z,101084.63
2024-01-29T21:29:40.228Z,101087.80
2024-01-29T21:32:10.075Z,101079.52
2024-01-29T21:34:38.239Z,101080.48
2024-01-29T21:37:05.761Z,101078.38
2024-01-29T21:39:33.829Z,101076.48
2024-01-29T21:42:01.208Z,101079.53
2024-01-29T21:44:28.801Z,101076.02
2024-01-29T21:46:56.209Z,101077.95
2024-01-29T21:49:23.900Z,101074.30
2024-01-29T21:51:51.553Z,101068.08
2024-01-29T21:54:19.158Z,101068.02
2024-01-29T21:56:46.520Z,101063.84
2024-01-29T21:59:13.897Z,101066.86
2024-01-29T22:01:41.419Z,101067.77
2024-01-29T22:04:09.306Z,101068.27
2024-01-29T22:06:36.914Z,101064.50
2024-01-29T22:09:05.391Z,101063.45
2024-01-29T22:11:32.832Z,101064.64
2024-01-29T22:14:00.216Z,101060.02
2024-01-29T22:16:27.736Z,101054.88
2024-01-29T22:18:55.376Z,101055.27
2024-01-29T22:21:23.154Z,101057.16
2024-01-29T22:23:50.603Z,101056.41
2024-01-29T22:26:18.027Z,101057.50
2024-01-29T22:28:47.782Z,101056.94
2024-01-29T22:31:15.403Z,101059.21
2024-01-29T22:33:43.285Z,101063.35
2024-01-29T22:36:11.133Z,101066.73
2024-01-29T22:38:39.759Z,101062.07
2024-01-29T22:41:09.438Z,101060.85
2024-01-29T22:43:37.015Z,101066.14
2024-01-29T22:46:04.734Z,101071.67
2024-01-29T22:48:32.357Z,101071.48
2024-01-29T22:50:59.825Z,101065.85
2024-01-29T22:53:27.215Z,101068.10
2024-01-29T22:55:54.594Z,101067.65
2024-01-29T22:58:22.115Z,101068.55
2024-01-29T23:00:52.025Z,101069.64
2024-01-29T23:03:20.792Z,101060.68
2024-01-29T23:05:48.163Z,101062.36
2024-01-29T23:08:16.955Z,101062.83
2024-01-29T23:10:44.442Z,101061.16
2024-01-29T23:13:13.973Z,101063.53
2024-01-29T23:15:41.512Z,101065.58
2024-01-29T23:18:09.865Z,101065.70
2024-01-29T23:20:37.439Z,101064.02
2024-01-29T23:23:05.664Z,101065.81
2024-01-29T23:25:33.120Z,101067.27
2024-01-29T23:28:00.518Z,101064.64
2024-01-29T23:30:27.870Z,101058.04
2024-01-29T23:32:55.574Z,101053.30
2024-01-29T23:35:23.141Z,101051.11
2024-01-29T23:37:51.025Z,101049.47
2024-01-29T23:40:18.650Z,101048.42
2024-01-29T23:42:46.154Z,101049.30
2024-01-29T23:45:13.586Z,101048.04
2024-01-29T23:47:40.936Z,101045.23
2024-01-29T23:50:08.955Z,101046.66
2024-01-29T23:52:36.566Z,101048.86
2024-01-29T23:55:05.536Z,101046.93
2024-01-29T23:57:32.998Z,101046.63
